sensor_id;sensor_type;location;lat;lon;timestamp;P1;durP1;ratioP1;P2;durP2;ratioP2
63943;SDS011;50121;51.218;7.664;2023-03-01T00:02:18;13.05;;;10.73;;
63943;SDS011;50121;51.218;7.664;2023-03-01T00:04:45;17.50;;;13.07;;
63943;SDS011;50121;51.218;7.664;2023-03-01T00:07:13;14.18;;;11.50;;
63943;SDS011;50121;51.218;7.664;2023-03-01T00:09:41;21.25;;;14.48;;
63943;SDS011;50121;51.218;7.664;2023-03-01T00:12:08;16.92;;;12.23;;
63943;SDS011;50121;51.218;7.664;2023-03-01T00:14:36;23.65;;;16.10;;
63943;SDS011;50121;51.218;7.664;2023-03-01T00:17:03;37.78;;;24.08;;
63943;SDS011;50121;51.218;7.664;2023-03-01T00:19:31;35.40;;;21.95;;
63943;SDS011;50121;51.218;7.664;2023-03-01T00:21:59;28.52;;;16.10;;
63943;SDS011;50121;51.218;7.664;2023-03-01T00:24:26;28.73;;;18.40;;
63943;SDS011;50121;51.218;7.664;2023-03-01T00:26:54;32.13;;;19.88;;
63943;SDS011;50121;51.218;7.664;2023-03-01T00:29:23;19.98;;;13.63;;
63943;SDS011;50121;51.218;7.664;2023-03-01T00:31:50;15.27;;;10.23;;
63943;SDS011;50121;51.218;7.664;2023-03-01T00:34:18;10.98;;;8.30;;
63943;SDS011;50121;51.218;7.664;2023-03-01T00:36:46;11.25;;;8.25;;
63943;SDS011;50121;51.218;7.664;2023-03-01T00:39:14;12.45;;;7.93;;
63943;SDS011;50121;51.218;7.664;2023-03-01T00:41:42;10.57;;;7.50;;
63943;SDS011;50121;51.218;7.664;2023-03-01T00:44:10;14.75;;;8.25;;
63943;SDS011;50121;51.218;7.664;2023-03-01T00:46:38;11.73;;;7.97;;
63943;SDS011;50121;51.218;7.664;2023-03-01T00:49:06;14.27;;;9.77;;
63943;SDS011;50121;51.218;7.664;2023-03-01T00:51:33;14.32;;;9.18;;
63943;SDS011;50121;51.218;7.664;2023-03-01T00:54:01;13.65;;;8.23;;
63943;SDS011;50121;51.218;7.664;2023-03-01T00:56:29;13.70;;;9.32;;
63943;SDS011;50121;51.218;7.664;2023-03-01T00:58:58;13.45;;;8.57;;
63943;SDS011;50121;51.218;7.664;2023-03-01T01:01:26;11.52;;;8.23;;
63943;SDS011;50121;51.218;7.664;2023-03-01T01:03:58;13.02;;;9.38;;
63943;SDS011;50121;51.218;7.664;2023-03-01T01:08:54;12.00;;;8.57;;
63943;SDS011;50121;51.218;7.664;2023-03-01T01:11:23;12.32;;;9.10;;
63943;SDS011;50121;51.218;7.664;2023-03-01T01:13:51;13.93;;;9.27;;
63943;SDS011;50121;51.218;7.664;2023-03-01T01:16:20;12.13;;;9.30;;
63943;SDS011;50121;51.218;7.664;2023-03-01T01:18:48;14.27;;;8.90;;
63943;SDS011;50121;51.218;7.664;2023-03-01T01:21:16;12.88;;;9.00;;
63943;SDS011;50121;51.218;7.664;2023-03-01T01:23:45;12.00;;;9.30;;
63943;SDS011;50121;51.218;7.664;2023-03-01T01:26:14;11.18;;;8.63;;
63943;SDS011;50121;51.218;7.664;2023-03-01T01:28:42;12.57;;;9.10;;
63943;SDS011;50121;51.218;7.664;2023-03-01T01:31:10;12.10;;;9.15;;
63943;SDS011;50121;51.218;7.664;2023-03-01T01:33:38;11.27;;;8.32;;
63943;SDS011;50121;51.218;7.664;2023-03-01T01:36:06;11.18;;;8.68;;
63943;SDS011;50121;51.218;7.664;2023-03-01T01:38:34;12.95;;;9.00;;
63943;SDS011;50121;51.218;7.664;2023-03-01T01:41:02;11.38;;;8.75;;
63943;SDS011;50121;51.218;7.664;2023-03-01T01:43:32;13.85;;;8.60;;
63943;SDS011;50121;51.218;7.664;2023-03-01T01:46:05;10.63;;;8.43;;
63943;SDS011;50121;51.218;7.664;2023-03-01T01:48:39;13.45;;;8.25;;
63943;SDS011;50121;51.218;7.664;2023-03-01T01:51:19;11.38;;;8.40;;
63943;SDS011;50121;51.218;7.664;2023-03-01T01:53:48;11.98;;;8.23;;
63943;SDS011;50121;51.218;7.664;2023-03-01T01:56:16;11.05;;;8.55;;
63943;SDS011;50121;51.218;7.664;2023-03-01T01:58:45;12.98;;;7.90;;
63943;SDS011;50121;51.218;7.664;2023-03-01T02:01:14;13.05;;;8.18;;
63943;SDS011;50121;51.218;7.664;2023-03-01T02:03:42;11.05;;;7.15;;
63943;SDS011;50121;51.218;7.664;2023-03-01T02:06:30;12.63;;;8.48;;
63943;SDS011;50121;51.218;7.664;2023-03-01T02:09:00;11.30;;;8.07;;
63943;SDS011;50121;51.218;7.664;2023-03-01T02:11:29;13.05;;;7.90;;
63943;SDS011;50121;51.218;7.664;2023-03-01T02:13:57;11.57;;;8.13;;
63943;SDS011;50121;51.218;7.664;2023-03-01T02:16:25;13.13;;;8.48;;
63943;SDS011;50121;51.218;7.664;2023-03-01T02:18:53;13.13;;;8.95;;
63943;SDS011;50121;51.218;7.664;2023-03-01T02:23:53;14.70;;;8.30;;
63943;SDS011;50121;51.218;7.664;2023-03-01T02:26:40;12.93;;;8.73;;
63943;SDS011;50121;51.218;7.664;2023-03-01T02:29:09;12.40;;;8.60;;
63943;SDS011;50121;51.218;7.664;2023-03-01T02:31:36;12.82;;;8.27;;
63943;SDS011;50121;51.218;7.664;2023-03-01T02:34:15;13.30;;;8.63;;
63943;SDS011;50121;51.218;7.664;2023-03-01T02:36:47;12.38;;;8.85;;
63943;SDS011;50121;51.218;7.664;2023-03-01T02:39:16;14.10;;;8.82;;
63943;SDS011;50121;51.218;7.664;2023-03-01T02:41:49;10.80;;;8.73;;
63943;SDS011;50121;51.218;7.664;2023-03-01T02:44:17;13.23;;;8.20;;
63943;SDS011;50121;51.218;7.664;2023-03-01T02:46:46;11.38;;;8.00;;
63943;SDS011;50121;51.218;7.664;2023-03-01T02:55:00;12.48;;;8.80;;
63943;SDS011;50121;51.218;7.664;2023-03-01T02:57:07;13.65;;;8.45;;
63943;SDS011;50121;51.218;7.664;2023-03-01T02:59:35;10.95;;;8.65;;
63943;SDS011;50121;51.218;7.664;2023-03-01T03:02:18;12.80;;;8.60;;
63943;SDS011;50121;51.218;7.664;2023-03-01T03:05:11;12.77;;;8.30;;
63943;SDS011;50121;51.218;7.664;2023-03-01T03:07:40;11.95;;;8.30;;
63943;SDS011;50121;51.218;7.664;2023-03-01T03:10:11;14.05;;;9.20;;
63943;SDS011;50121;51.218;7.664;2023-03-01T03:12:39;12.20;;;8.32;;
63943;SDS011;50121;51.218;7.664;2023-03-01T03:15:07;12.60;;;7.70;;
63943;SDS011;50121;51.218;7.664;2023-03-01T03:17:36;13.77;;;8.85;;
63943;SDS011;50121;51.218;7.664;2023-03-01T03:20:04;13.15;;;8.73;;
63943;SDS011;50121;51.218;7.664;2023-03-01T03:22:32;12.35;;;8.07;;
63943;SDS011;50121;51.218;7.664;2023-03-01T03:25:00;13.88;;;9.18;;
63943;SDS011;50121;51.218;7.664;2023-03-01T03:27:28;15.35;;;9.32;;
63943;SDS011;50121;51.218;7.664;2023-03-01T03:29:55;13.30;;;8.25;;
63943;SDS011;50121;51.218;7.664;2023-03-01T03:32:23;13.65;;;8.70;;
63943;SDS011;50121;51.218;7.664;2023-03-01T03:34:50;13.13;;;8.52;;
63943;SDS011;50121;51.218;7.664;2023-03-01T03:37:18;12.88;;;8.88;;
63943;SDS011;50121;51.218;7.664;2023-03-01T03:40:04;13.93;;;9.27;;
63943;SDS011;50121;51.218;7.664;2023-03-01T03:42:41;14.32;;;8.98;;
63943;SDS011;50121;51.218;7.664;2023-03-01T03:45:09;13.23;;;8.85;;
63943;SDS011;50121;51.218;7.664;2023-03-01T03:47:36;14.10;;;8.75;;
63943;SDS011;50121;51.218;7.664;2023-03-01T03:50:04;13.48;;;8.98;;
63943;SDS011;50121;51.218;7.664;2023-03-01T03:52:31;13.85;;;9.50;;
63943;SDS011;50121;51.218;7.664;2023-03-01T03:54:59;13.43;;;9.13;;
63943;SDS011;50121;51.218;7.664;2023-03-01T03:57:27;14.52;;;9.40;;
63943;SDS011;50121;51.218;7.664;2023-03-01T03:59:54;15.88;;;9.25;;
63943;SDS011;50121;51.218;7.664;2023-03-01T04:02:22;13.02;;;8.82;;
63943;SDS011;50121;51.218;7.664;2023-03-01T04:04:50;15.60;;;9.38;;
63943;SDS011;50121;51.218;7.664;2023-03-01T04:07:18;16.08;;;9.13;;
63943;SDS011;50121;51.218;7.664;2023-03-01T04:09:45;13.73;;;9.13;;
63943;SDS011;50121;51.218;7.664;2023-03-01T04:12:13;14.23;;;9.10;;
63943;SDS011;50121;51.218;7.664;2023-03-01T04:14:40;13.75;;;9.15;;
63943;SDS011;50121;51.218;7.664;2023-03-01T04:17:08;21.88;;;8.43;;
63943;SDS011;50121;51.218;7.664;2023-03-01T04:19:35;12.48;;;8.73;;
63943;SDS011;50121;51.218;7.664;2023-03-01T04:22:03;12.67;;;8.40;;
63943;SDS011;50121;51.218;7.664;2023-03-01T04:24:35;16.27;;;9.00;;
63943;SDS011;50121;51.218;7.664;2023-03-01T04:27:03;13.23;;;8.60;;
63943;SDS011;50121;51.218;7.664;2023-03-01T04:29:30;16.17;;;8.85;;
63943;SDS011;50121;51.218;7.664;2023-03-01T04:31:58;14.90;;;9.10;;
63943;SDS011;50121;51.218;7.664;2023-03-01T04:34:26;16.77;;;10.05;;
63943;SDS011;50121;51.218;7.664;2023-03-01T04:36:53;13.45;;;9.13;;
63943;SDS011;50121;51.218;7.664;2023-03-01T04:39:21;14.38;;;9.70;;
63943;SDS011;50121;51.218;7.664;2023-03-01T04:41:48;16.05;;;9.45;;
63943;SDS011;50121;51.218;7.664;2023-03-01T04:44:16;13.60;;;8.45;;
63943;SDS011;50121;51.218;7.664;2023-03-01T04:46:43;14.70;;;8.75;;
63943;SDS011;50121;51.218;7.664;2023-03-01T04:49:11;13.48;;;9.05;;
63943;SDS011;50121;51.218;7.664;2023-03-01T04:51:39;16.17;;;9.68;;
63943;SDS011;50121;51.218;7.664;2023-03-01T04:54:06;14.75;;;9.07;;
63943;SDS011;50121;51.218;7.664;2023-03-01T04:56:35;16.25;;;10.00;;
63943;SDS011;50121;51.218;7.664;2023-03-01T04:59:02;16.13;;;9.90;;
63943;SDS011;50121;51.218;7.664;2023-03-01T05:01:32;16.17;;;10.30;;
63943;SDS011;50121;51.218;7.664;2023-03-01T05:04:00;14.75;;;10.27;;
63943;SDS011;50121;51.218;7.664;2023-03-01T05:06:29;18.43;;;11.43;;
63943;SDS011;50121;51.218;7.664;2023-03-01T05:08:57;17.07;;;10.43;;
63943;SDS011;50121;51.218;7.664;2023-03-01T05:11:25;13.40;;;9.87;;
63943;SDS011;50121;51.218;7.664;2023-03-01T05:13:54;12.47;;;7.47;;
63943;SDS011;50121;51.218;7.664;2023-03-01T05:16:22;15.48;;;10.25;;
63943;SDS011;50121;51.218;7.664;2023-03-01T05:18:49;15.57;;;9.80;;
63943;SDS011;50121;51.218;7.664;2023-03-01T05:21:17;18.48;;;10.23;;
63943;SDS011;50121;51.218;7.664;2023-03-01T05:23:45;16.00;;;8.50;;
63943;SDS011;50121;51.218;7.664;2023-03-01T05:26:13;14.07;;;8.98;;
63943;SDS011;50121;51.218;7.664;2023-03-01T05:28:53;16.27;;;10.23;;
63943;SDS011;50121;51.218;7.664;2023-03-01T05:31:25;13.65;;;9.90;;
63943;SDS011;50121;51.218;7.664;2023-03-01T05:33:52;17.40;;;10.18;;
63943;SDS011;50121;51.218;7.664;2023-03-01T05:36:20;15.88;;;10.13;;
63943;SDS011;50121;51.218;7.664;2023-03-01T05:38:48;17.75;;;10.73;;
63943;SDS011;50121;51.218;7.664;2023-03-01T05:41:15;18.07;;;10.80;;
63943;SDS011;50121;51.218;7.664;2023-03-01T05:43:46;17.43;;;9.83;;
63943;SDS011;50121;51.218;7.664;2023-03-01T05:46:13;16.83;;;10.10;;
63943;SDS011;50121;51.218;7.664;2023-03-01T05:48:41;18.77;;;10.57;;
63943;SDS011;50121;51.218;7.664;2023-03-01T05:51:10;18.73;;;10.90;;
63943;SDS011;50121;51.218;7.664;2023-03-01T05:53:38;15.52;;;10.70;;
63943;SDS011;50121;51.218;7.664;2023-03-01T05:56:06;23.17;;;13.80;;
63943;SDS011;50121;51.218;7.664;2023-03-01T05:58:34;56.37;;;31.20;;
63943;SDS011;50121;51.218;7.664;2023-03-01T06:01:01;51.63;;;28.23;;
63943;SDS011;50121;51.218;7.664;2023-03-01T06:03:29;54.45;;;24.42;;
63943;SDS011;50121;51.218;7.664;2023-03-01T06:05:56;23.67;;;13.37;;
63943;SDS011;50121;51.218;7.664;2023-03-01T06:08:24;34.17;;;16.77;;
63943;SDS011;50121;51.218;7.664;2023-03-01T06:10:53;31.43;;;15.23;;
63943;SDS011;50121;51.218;7.664;2023-03-01T06:13:21;47.27;;;19.97;;
63943;SDS011;50121;51.218;7.664;2023-03-01T06:15:50;43.88;;;19.35;;
63943;SDS011;50121;51.218;7.664;2023-03-01T06:18:18;66.07;;;25.08;;
63943;SDS011;50121;51.218;7.664;2023-03-01T06:20:51;67.10;;;25.37;;
63943;SDS011;50121;51.218;7.664;2023-03-01T06:23:19;61.97;;;22.88;;
63943;SDS011;50121;51.218;7.664;2023-03-01T06:25:47;112.30;;;36.80;;
63943;SDS011;50121;51.218;7.664;2023-03-01T06:28:14;120.47;;;40.53;;
63943;SDS011;50121;51.218;7.664;2023-03-01T06:30:42;95.00;;;33.38;;
63943;SDS011;50121;51.218;7.664;2023-03-01T06:33:10;85.95;;;32.33;;
63943;SDS011;50121;51.218;7.664;2023-03-01T06:35:37;58.97;;;22.27;;
63943;SDS011;50121;51.218;7.664;2023-03-01T06:38:05;29.17;;;14.77;;
63943;SDS011;50121;51.218;7.664;2023-03-01T06:40:32;48.95;;;20.60;;
63943;SDS011;50121;51.218;7.664;2023-03-01T06:43:01;66.67;;;26.07;;
63943;SDS011;50121;51.218;7.664;2023-03-01T06:45:29;64.05;;;27.15;;
63943;SDS011;50121;51.218;7.664;2023-03-01T06:48:03;62.37;;;25.10;;
63943;SDS011;50121;51.218;7.664;2023-03-01T06:50:31;82.30;;;31.48;;
63943;SDS011;50121;51.218;7.664;2023-03-01T06:52:59;78.00;;;30.00;;
63943;SDS011;50121;51.218;7.664;2023-03-01T06:55:27;77.10;;;31.70;;
63943;SDS011;50121;51.218;7.664;2023-03-01T06:57:55;72.85;;;28.23;;
63943;SDS011;50121;51.218;7.664;2023-03-01T07:00:23;42.33;;;20.30;;
63943;SDS011;50121;51.218;7.664;2023-03-01T07:02:51;32.10;;;15.18;;
63943;SDS011;50121;51.218;7.664;2023-03-01T07:05:19;40.83;;;19.00;;
63943;SDS011;50121;51.218;7.664;2023-03-01T07:07:46;54.45;;;21.20;;
63943;SDS011;50121;51.218;7.664;2023-03-01T07:10:14;45.60;;;20.85;;
63943;SDS011;50121;51.218;7.664;2023-03-01T07:12:41;60.97;;;24.77;;
63943;SDS011;50121;51.218;7.664;2023-03-01T07:15:09;64.72;;;26.88;;
63943;SDS011;50121;51.218;7.664;2023-03-01T07:17:37;59.08;;;26.17;;
63943;SDS011;50121;51.218;7.664;2023-03-01T07:20:04;63.13;;;27.25;;
63943;SDS011;50121;51.218;7.664;2023-03-01T07:22:32;28.55;;;15.98;;
63943;SDS011;50121;51.218;7.664;2023-03-01T07:25:00;53.58;;;28.00;;
63943;SDS011;50121;51.218;7.664;2023-03-01T07:27:27;35.40;;;19.40;;
63943;SDS011;50121;51.218;7.664;2023-03-01T07:29:55;36.72;;;20.30;;
63943;SDS011;50121;51.218;7.664;2023-03-01T07:32:22;26.77;;;14.30;;
63943;SDS011;50121;51.218;7.664;2023-03-01T07:34:50;23.20;;;12.38;;
63943;SDS011;50121;51.218;7.664;2023-03-01T07:37:18;18.73;;;11.05;;
63943;SDS011;50121;51.218;7.664;2023-03-01T07:39:45;28.58;;;15.20;;
63943;SDS011;50121;51.218;7.664;2023-03-01T07:42:13;25.25;;;14.60;;
63943;SDS011;50121;51.218;7.664;2023-03-01T07:44:41;19.52;;;10.43;;
63943;SDS011;50121;51.218;7.664;2023-03-01T07:47:08;18.63;;;10.32;;
63943;SDS011;50121;51.218;7.664;2023-03-01T07:49:36;17.70;;;10.85;;
63943;SDS011;50121;51.218;7.664;2023-03-01T07:52:06;18.60;;;11.65;;
63943;SDS011;50121;51.218;7.664;2023-03-01T07:54:36;18.55;;;11.18;;
63943;SDS011;50121;51.218;7.664;2023-03-01T07:57:03;25.00;;;13.55;;
63943;SDS011;50121;51.218;7.664;2023-03-01T07:59:31;42.20;;;21.90;;
63943;SDS011;50121;51.218;7.664;2023-03-01T08:01:59;26.50;;;14.32;;
63943;SDS011;50121;51.218;7.664;2023-03-01T08:04:27;18.85;;;11.30;;
63943;SDS011;50121;51.218;7.664;2023-03-01T08:06:55;13.77;;;9.60;;
63943;SDS011;50121;51.218;7.664;2023-03-01T08:09:22;13.68;;;9.80;;
63943;SDS011;50121;51.218;7.664;2023-03-01T08:11:50;18.02;;;10.82;;
63943;SDS011;50121;51.218;7.664;2023-03-01T08:14:17;13.65;;;9.50;;
63943;SDS011;50121;51.218;7.664;2023-03-01T08:16:45;16.75;;;11.20;;
63943;SDS011;50121;51.218;7.664;2023-03-01T08:19:15;17.65;;;10.77;;
63943;SDS011;50121;51.218;7.664;2023-03-01T08:21:43;21.23;;;11.38;;
63943;SDS011;50121;51.218;7.664;2023-03-01T08:24:11;13.80;;;8.60;;
63943;SDS011;50121;51.218;7.664;2023-03-01T08:26:38;22.10;;;10.82;;
63943;SDS011;50121;51.218;7.664;2023-03-01T08:29:06;20.33;;;11.93;;
63943;SDS011;50121;51.218;7.664;2023-03-01T08:31:37;13.52;;;10.02;;
63943;SDS011;50121;51.218;7.664;2023-03-01T08:34:06;14.73;;;8.48;;
63943;SDS011;50121;51.218;7.664;2023-03-01T08:36:35;14.95;;;8.50;;
63943;SDS011;50121;51.218;7.664;2023-03-01T08:39:03;22.25;;;11.80;;
63943;SDS011;50121;51.218;7.664;2023-03-01T08:41:31;19.33;;;12.23;;
63943;SDS011;50121;51.218;7.664;2023-03-01T08:43:59;26.55;;;14.77;;
63943;SDS011;50121;51.218;7.664;2023-03-01T08:46:37;19.98;;;10.18;;
63943;SDS011;50121;51.218;7.664;2023-03-01T08:49:05;18.55;;;11.30;;
63943;SDS011;50121;51.218;7.664;2023-03-01T08:51:33;20.95;;;12.18;;
63943;SDS011;50121;51.218;7.664;2023-03-01T08:54:03;16.25;;;9.40;;
63943;SDS011;50121;51.218;7.664;2023-03-01T08:56:31;18.08;;;9.43;;
63943;SDS011;50121;51.218;7.664;2023-03-01T08:58:59;17.02;;;10.93;;
63943;SDS011;50121;51.218;7.664;2023-03-01T09:01:27;13.85;;;8.82;;
63943;SDS011;50121;51.218;7.664;2023-03-01T09:03:55;14.55;;;9.18;;
63943;SDS011;50121;51.218;7.664;2023-03-01T09:06:22;17.17;;;10.18;;
63943;SDS011;50121;51.218;7.664;2023-03-01T09:08:50;14.52;;;8.30;;
63943;SDS011;50121;51.218;7.664;2023-03-01T09:11:19;17.50;;;10.55;;
63943;SDS011;50121;51.218;7.664;2023-03-01T09:13:48;19.35;;;11.07;;
63943;SDS011;50121;51.218;7.664;2023-03-01T09:16:21;16.67;;;9.85;;
63943;SDS011;50121;51.218;7.664;2023-03-01T09:18:52;15.30;;;9.77;;
63943;SDS011;50121;51.218;7.664;2023-03-01T09:21:21;11.95;;;8.15;;
63943;SDS011;50121;51.218;7.664;2023-03-01T09:24:04;15.15;;;9.70;;
63943;SDS011;50121;51.218;7.664;2023-03-01T09:26:31;16.88;;;9.70;;
63943;SDS011;50121;51.218;7.664;2023-03-01T09:28:59;15.57;;;10.10;;
63943;SDS011;50121;51.218;7.664;2023-03-01T09:31:27;15.48;;;10.60;;
63943;SDS011;50121;51.218;7.664;2023-03-01T09:33:54;12.75;;;9.02;;
63943;SDS011;50121;51.218;7.664;2023-03-01T09:36:23;13.35;;;9.88;;
63943;SDS011;50121;51.218;7.664;2023-03-01T09:38:52;13.48;;;8.13;;
63943;SDS011;50121;51.218;7.664;2023-03-01T09:44:10;15.07;;;9.80;;
63943;SDS011;50121;51.218;7.664;2023-03-01T09:49:12;20.80;;;10.63;;
63943;SDS011;50121;51.218;7.664;2023-03-01T09:51:53;20.95;;;10.10;;
63943;SDS011;50121;51.218;7.664;2023-03-01T09:54:22;14.52;;;9.80;;
63943;SDS011;50121;51.218;7.664;2023-03-01T09:59:25;19.23;;;10.38;;
63943;SDS011;50121;51.218;7.664;2023-03-01T10:07:15;15.02;;;9.38;;
63943;SDS011;50121;51.218;7.664;2023-03-01T10:09:39;13.32;;;8.68;;
63943;SDS011;50121;51.218;7.664;2023-03-01T10:12:12;10.43;;;7.30;;
63943;SDS011;50121;51.218;7.664;2023-03-01T10:17:36;17.70;;;10.30;;
63943;SDS011;50121;51.218;7.664;2023-03-01T10:22:58;15.30;;;10.10;;
63943;SDS011;50121;51.218;7.664;2023-03-01T10:27:54;15.10;;;10.13;;
63943;SDS011;50121;51.218;7.664;2023-03-01T10:32:50;17.55;;;9.98;;
63943;SDS011;50121;51.218;7.664;2023-03-01T10:35:19;16.83;;;9.73;;
63943;SDS011;50121;51.218;7.664;2023-03-01T10:40:25;20.25;;;10.23;;
63943;SDS011;50121;51.218;7.664;2023-03-01T10:42:52;14.68;;;9.05;;
63943;SDS011;50121;51.218;7.664;2023-03-01T10:48:30;14.93;;;10.30;;
63943;SDS011;50121;51.218;7.664;2023-03-01T10:58:29;16.00;;;10.13;;
63943;SDS011;50121;51.218;7.664;2023-03-01T11:00:58;17.15;;;9.60;;
63943;SDS011;50121;51.218;7.664;2023-03-01T11:03:28;16.70;;;10.05;;
63943;SDS011;50121;51.218;7.664;2023-03-01T11:08:44;18.08;;;9.60;;
63943;SDS011;50121;51.218;7.664;2023-03-01T11:13:47;12.95;;;9.23;;
63943;SDS011;50121;51.218;7.664;2023-03-01T11:16:22;20.35;;;12.43;;
63943;SDS011;50121;51.218;7.664;2023-03-01T11:18:57;12.60;;;8.93;;
63943;SDS011;50121;51.218;7.664;2023-03-01T11:21:25;13.98;;;9.65;;
63943;SDS011;50121;51.218;7.664;2023-03-01T11:23:53;14.15;;;9.00;;
63943;SDS011;50121;51.218;7.664;2023-03-01T11:26:21;15.77;;;9.15;;
63943;SDS011;50121;51.218;7.664;2023-03-01T11:28:50;15.38;;;9.50;;
63943;SDS011;50121;51.218;7.664;2023-03-01T11:31:19;16.58;;;10.05;;
63943;SDS011;50121;51.218;7.664;2023-03-01T11:33:55;11.90;;;9.35;;
63943;SDS011;50121;51.218;7.664;2023-03-01T11:39:02;13.40;;;9.90;;
63943;SDS011;50121;51.218;7.664;2023-03-01T11:41:31;16.70;;;9.90;;
63943;SDS011;50121;51.218;7.664;2023-03-01T11:44:09;13.98;;;9.88;;
63943;SDS011;50121;51.218;7.664;2023-03-01T12:07:39;14.07;;;8.85;;
63943;SDS011;50121;51.218;7.664;2023-03-01T12:20:57;13.52;;;9.82;;
63943;SDS011;50121;51.218;7.664;2023-03-01T12:23:49;10.63;;;8.63;;
63943;SDS011;50121;51.218;7.664;2023-03-01T12:49:43;10.63;;;7.40;;
63943;SDS011;50121;51.218;7.664;2023-03-01T12:54:58;13.95;;;7.00;;
63943;SDS011;50121;51.218;7.664;2023-03-01T12:57:34;11.52;;;7.43;;
63943;SDS011;50121;51.218;7.664;2023-03-01T13:00:12;12.43;;;9.45;;
63943;SDS011;50121;51.218;7.664;2023-03-01T13:02:45;10.45;;;7.82;;
63943;SDS011;50121;51.218;7.664;2023-03-01T13:08:00;10.52;;;7.20;;
63943;SDS011;50121;51.218;7.664;2023-03-01T13:15:36;18.25;;;11.90;;
63943;SDS011;50121;51.218;7.664;2023-03-01T13:20:46;11.30;;;7.68;;
63943;SDS011;50121;51.218;7.664;2023-03-01T13:26:08;15.82;;;14.30;;
63943;SDS011;50121;51.218;7.664;2023-03-01T13:31:09;10.43;;;9.23;;
63943;SDS011;50121;51.218;7.664;2023-03-01T13:36:08;9.43;;;8.50;;
63943;SDS011;50121;51.218;7.664;2023-03-01T13:41:07;9.68;;;8.52;;
63943;SDS011;50121;51.218;7.664;2023-03-01T13:43:36;10.43;;;8.85;;
63943;SDS011;50121;51.218;7.664;2023-03-01T13:46:08;9.52;;;8.63;;
63943;SDS011;50121;51.218;7.664;2023-03-01T13:48:37;13.32;;;9.20;;
63943;SDS011;50121;51.218;7.664;2023-03-01T13:51:09;9.32;;;8.43;;
63943;SDS011;50121;51.218;7.664;2023-03-01T13:53:45;9.98;;;9.07;;
63943;SDS011;50121;51.218;7.664;2023-03-01T13:56:17;9.63;;;8.73;;
63943;SDS011;50121;51.218;7.664;2023-03-01T13:58:48;9.45;;;8.63;;
63943;SDS011;50121;51.218;7.664;2023-03-01T14:01:24;10.50;;;9.45;;
63943;SDS011;50121;51.218;7.664;2023-03-01T14:03:52;9.55;;;8.57;;
63943;SDS011;50121;51.218;7.664;2023-03-01T14:06:21;14.68;;;11.07;;
63943;SDS011;50121;51.218;7.664;2023-03-01T14:08:49;12.82;;;10.70;;
63943;SDS011;50121;51.218;7.664;2023-03-01T14:16:48;10.98;;;9.98;;
63943;SDS011;50121;51.218;7.664;2023-03-01T14:19:28;10.45;;;9.43;;
63943;SDS011;50121;51.218;7.664;2023-03-01T14:24:52;20.77;;;14.80;;
63943;SDS011;50121;51.218;7.664;2023-03-01T14:27:21;14.27;;;9.98;;
63943;SDS011;50121;51.218;7.664;2023-03-01T14:30:00;12.88;;;11.23;;
63943;SDS011;50121;51.218;7.664;2023-03-01T14:32:29;12.90;;;11.52;;
63943;SDS011;50121;51.218;7.664;2023-03-01T14:34:57;13.32;;;11.35;;
63943;SDS011;50121;51.218;7.664;2023-03-01T14:37:27;17.60;;;13.63;;
63943;SDS011;50121;51.218;7.664;2023-03-01T14:39:55;13.43;;;11.85;;
63943;SDS011;50121;51.218;7.664;2023-03-01T14:42:24;10.55;;;9.63;;
63943;SDS011;50121;51.218;7.664;2023-03-01T14:44:54;12.57;;;11.38;;
63943;SDS011;50121;51.218;7.664;2023-03-01T14:47:30;12.52;;;11.23;;
63943;SDS011;50121;51.218;7.664;2023-03-01T14:52:31;18.38;;;14.65;;
63943;SDS011;50121;51.218;7.664;2023-03-01T14:55:05;18.88;;;15.07;;
63943;SDS011;50121;51.218;7.664;2023-03-01T14:57:33;12.00;;;10.70;;
63943;SDS011;50121;51.218;7.664;2023-03-01T15:00:05;25.13;;;16.90;;
63943;SDS011;50121;51.218;7.664;2023-03-01T15:02:37;12.88;;;11.57;;
63943;SDS011;50121;51.218;7.664;2023-03-01T15:05:06;22.65;;;18.05;;
63943;SDS011;50121;51.218;7.664;2023-03-01T15:07:37;10.40;;;9.40;;
63943;SDS011;50121;51.218;7.664;2023-03-01T15:10:06;12.48;;;11.18;;
63943;SDS011;50121;51.218;7.664;2023-03-01T15:12:36;15.77;;;13.80;;
63943;SDS011;50121;51.218;7.664;2023-03-01T15:17:51;18.13;;;15.55;;
63943;SDS011;50121;51.218;7.664;2023-03-01T15:20:27;20.05;;;15.77;;
63943;SDS011;50121;51.218;7.664;2023-03-01T15:22:57;23.17;;;18.38;;
63943;SDS011;50121;51.218;7.664;2023-03-01T15:25:26;16.00;;;14.40;;
63943;SDS011;50121;51.218;7.664;2023-03-01T15:27:56;35.90;;;25.08;;
63943;SDS011;50121;51.218;7.664;2023-03-01T15:30:32;26.50;;;18.00;;
63943;SDS011;50121;51.218;7.664;2023-03-01T15:35:51;11.02;;;9.85;;
63943;SDS011;50121;51.218;7.664;2023-03-01T15:40:51;16.00;;;12.93;;
63943;SDS011;50121;51.218;7.664;2023-03-01T15:46:12;28.58;;;21.23;;
63943;SDS011;50121;51.218;7.664;2023-03-01T15:48:47;22.83;;;18.92;;
63943;SDS011;50121;51.218;7.664;2023-03-01T15:51:16;19.23;;;17.20;;
63943;SDS011;50121;51.218;7.664;2023-03-01T15:53:46;18.95;;;16.98;;
63943;SDS011;50121;51.218;7.664;2023-03-01T15:56:20;13.57;;;12.32;;
63943;SDS011;50121;51.218;7.664;2023-03-01T15:58:48;11.30;;;10.30;;
63943;SDS011;50121;51.218;7.664;2023-03-01T16:01:16;12.48;;;11.10;;
63943;SDS011;50121;51.218;7.664;2023-03-01T16:03:44;13.23;;;11.90;;
63943;SDS011;50121;51.218;7.664;2023-03-01T16:06:21;11.15;;;10.15;;
63943;SDS011;50121;51.218;7.664;2023-03-01T16:08:48;12.70;;;11.60;;
63943;SDS011;50121;51.218;7.664;2023-03-01T16:11:18;11.30;;;10.40;;
63943;SDS011;50121;51.218;7.664;2023-03-01T16:13:46;10.98;;;10.05;;
63943;SDS011;50121;51.218;7.664;2023-03-01T16:16:14;12.48;;;11.18;;
63943;SDS011;50121;51.218;7.664;2023-03-01T16:18:43;10.93;;;9.63;;
63943;SDS011;50121;51.218;7.664;2023-03-01T16:21:20;9.32;;;8.35;;
63943;SDS011;50121;51.218;7.664;2023-03-01T16:23:48;10.40;;;9.50;;
63943;SDS011;50121;51.218;7.664;2023-03-01T16:26:16;11.10;;;10.10;;
63943;SDS011;50121;51.218;7.664;2023-03-01T16:28:46;11.18;;;10.07;;
63943;SDS011;50121;51.218;7.664;2023-03-01T16:31:16;10.30;;;9.40;;
63943;SDS011;50121;51.218;7.664;2023-03-01T16:33:44;10.57;;;9.57;;
63943;SDS011;50121;51.218;7.664;2023-03-01T16:36:19;11.02;;;9.95;;
63943;SDS011;50121;51.218;7.664;2023-03-01T16:38:50;12.68;;;10.05;;
63943;SDS011;50121;51.218;7.664;2023-03-01T16:41:19;10.57;;;9.50;;
63943;SDS011;50121;51.218;7.664;2023-03-01T16:43:47;10.05;;;9.10;;
63943;SDS011;50121;51.218;7.664;2023-03-01T16:46:22;9.40;;;8.45;;
63943;SDS011;50121;51.218;7.664;2023-03-01T16:48:50;10.07;;;8.75;;
63943;SDS011;50121;51.218;7.664;2023-03-01T16:51:18;9.23;;;8.32;;
63943;SDS011;50121;51.218;7.664;2023-03-01T16:53:46;9.75;;;8.75;;
63943;SDS011;50121;51.218;7.664;2023-03-01T16:56:14;9.40;;;8.50;;
63943;SDS011;50121;51.218;7.664;2023-03-01T16:58:42;9.85;;;8.73;;
63943;SDS011;50121;51.218;7.664;2023-03-01T17:01:20;9.68;;;8.70;;
63943;SDS011;50121;51.218;7.664;2023-03-01T17:03:52;9.63;;;8.63;;
63943;SDS011;50121;51.218;7.664;2023-03-01T17:06:20;10.00;;;8.65;;
63943;SDS011;50121;51.218;7.664;2023-03-01T17:08:48;10.10;;;7.80;;
63943;SDS011;50121;51.218;7.664;2023-03-01T17:11:16;10.80;;;8.73;;
63943;SDS011;50121;51.218;7.664;2023-03-01T17:13:44;9.30;;;7.55;;
63943;SDS011;50121;51.218;7.664;2023-03-01T17:16:13;9.27;;;8.20;;
63943;SDS011;50121;51.218;7.664;2023-03-01T17:18:42;9.82;;;8.32;;